Terminal Aerodrome Forecast
Issued by NWS Binghamton, NY

Home | Current Version | Previous Version | Text Only | Print | Product List | Glossary On
Versions: 1 2 3 4 5 6 7 8 9 10 11 12 13 14 15 16 17 18
000
FTUS41 KBGM 292325
TAFSYR
TAF
KSYR 292325Z 3000/3024 09006KT P6SM BKN090 PROB30 3019/3024 4SM
      -SHRA OVC035=

USA.gov is the U.S. government's official web portal to all federal, state and local government web resources and services.